createdAt,value
2023-05-24T04:00:29.857Z,7.06
2023-05-24T04:05:29.952Z,7.23
2023-05-24T04:10:29.726Z,7.35
2023-05-24T04:15:29.673Z,7.51
2023-05-24T04:20:29.743Z,7.88
2023-05-24T04:25:36.604Z,9.98
2023-05-24T04:30:29.546Z,11.33
2023-05-24T04:35:29.482Z,12.22
2023-05-24T04:40:29.426Z,12.91
2023-05-24T04:45:29.371Z,13.58
2023-05-24T04:50:29.307Z,14.37
2023-05-24T04:55:29.250Z,15.05
2023-05-24T05:00:29.227Z,15.67
2023-05-24T05:05:29.141Z,16.05
2023-05-24T05:10:29.095Z,15.94
2023-05-24T05:15:29.030Z,16.76
2023-05-24T05:20:29.075Z,15.89
2023-05-24T05:25:28.944Z,16.53
2023-05-24T05:30:28.862Z,17.27
2023-05-24T05:35:28.813Z,16.62
2023-05-24T05:40:28.775Z,14.06
2023-05-24T05:45:28.683Z,13.77
2023-05-24T05:50:28.647Z,15.41
2023-05-24T05:55:28.589Z,13.83
2023-05-24T06:00:28.571Z,13.45
2023-05-24T06:05:28.510Z,13.82
2023-05-24T06:10:28.419Z,15.63
2023-05-24T06:15:28.360Z,16.05
2023-05-24T06:20:28.919Z,15.66
2023-05-24T06:25:28.240Z,15.66
2023-05-24T06:30:28.494Z,15.28
2023-05-24T06:35:28.184Z,13.63
2023-05-24T06:40:28.141Z,13.14
2023-05-24T06:45:28.068Z,12.71
2023-05-24T06:50:27.979Z,15.14
2023-05-24T06:55:27.961Z,13.46
2023-05-24T07:00:27.940Z,13.42
2023-05-24T07:05:27.816Z,15.47
2023-05-24T07:10:27.876Z,14.76
2023-05-24T07:15:27.713Z,16.78
2023-05-24T07:20:27.844Z,15.50
2023-05-24T07:25:27.595Z,13.53
2023-05-24T07:30:32.244Z,13.95
2023-05-24T07:35:27.501Z,14.42
2023-05-24T07:40:27.474Z,14.20
2023-05-24T07:45:27.396Z,17.21
2023-05-24T07:50:27.310Z,16.31
2023-05-24T07:55:27.283Z,18.13
2023-05-24T08:00:27.543Z,16.70
2023-05-24T08:05:27.167Z,14.85
2023-05-24T08:10:27.120Z,14.00
2023-05-24T08:15:27.044Z,13.48
2023-05-24T08:20:27.105Z,14.21
2023-05-24T08:25:26.929Z,14.33
2023-05-24T08:30:26.908Z,15.15
2023-05-24T08:35:26.853Z,16.77
2023-05-24T08:40:27.027Z,15.97
2023-05-24T08:45:26.727Z,15.70
2023-05-24T08:50:26.684Z,17.54
2023-05-24T08:55:26.630Z,17.56
2023-05-24T09:00:26.589Z,15.10
2023-05-24T09:05:26.522Z,14.44
2023-05-24T09:10:26.462Z,14.45
2023-05-24T09:15:26.422Z,14.80
2023-05-24T09:20:26.462Z,16.33
2023-05-24T09:25:26.298Z,16.40
2023-05-24T09:30:26.218Z,15.04
2023-05-24T09:35:26.176Z,14.37
2023-05-24T09:40:26.153Z,14.90
2023-05-24T09:45:26.062Z,15.34
2023-05-24T09:50:26.009Z,15.29
2023-05-24T09:55:25.998Z,15.46
2023-05-24T10:00:26.015Z,16.38
2023-05-24T10:05:25.834Z,16.77
2023-05-24T10:10:25.795Z,16.95
2023-05-24T10:15:25.736Z,16.40
2023-05-24T10:20:25.808Z,16.20
2023-05-24T10:25:32.674Z,16.63
2023-05-24T10:30:25.591Z,16.80
2023-05-24T10:35:25.522Z,16.85
2023-05-24T10:40:25.571Z,18.33
2023-05-24T10:45:25.426Z,18.60
2023-05-24T10:50:25.385Z,17.32
2023-05-24T10:55:25.310Z,16.63
2023-05-24T11:00:34.587Z,16.15
2023-05-24T11:05:26.287Z,16.25
2023-05-24T11:10:25.168Z,16.20
2023-05-24T11:15:25.094Z,15.80
2023-05-24T11:20:25.096Z,15.08
2023-05-24T11:25:24.971Z,14.79
2023-05-24T11:30:24.920Z,14.76
2023-05-24T11:35:24.885Z,14.86
2023-05-24T11:40:24.908Z,15.09
2023-05-24T11:45:24.777Z,14.94
2023-05-24T11:50:26.655Z,14.92
2023-05-24T11:55:24.672Z,15.03
2023-05-24T12:00:24.663Z,15.66
2023-05-24T12:05:24.520Z,16.33
2023-05-24T12:10:24.480Z,17.27
2023-05-24T12:15:24.481Z,18.46
2023-05-24T12:20:24.445Z,17.71
2023-05-24T12:25:24.323Z,17.97
2023-05-24T12:30:24.290Z,18.55
2023-05-24T12:35:24.235Z,18.31
2023-05-24T12:40:24.200Z,17.43
2023-05-24T12:45:24.098Z,16.74
2023-05-24T12:50:24.057Z,16.09
2023-05-24T12:55:23.993Z,16.15
2023-05-24T13:00:23.989Z,16.24
2023-05-24T13:05:23.961Z,17.06
2023-05-24T13:10:23.858Z,17.29
2023-05-24T13:15:23.786Z,17.85
2023-05-24T13:20:23.816Z,17.49
2023-05-24T13:25:23.674Z,16.74
2023-05-24T13:30:23.629Z,15.99
2023-05-24T13:35:23.603Z,16.03
2023-05-24T13:40:23.550Z,16.09
2023-05-24T13:45:23.460Z,16.33
2023-05-24T13:50:23.418Z,16.51
2023-05-24T13:55:23.353Z,17.30
2023-05-24T14:00:23.325Z,17.35
2023-05-24T14:05:50.886Z,17.45
2023-05-24T14:10:24.189Z,17.17
2023-05-24T14:15:23.121Z,17.26
2023-05-24T14:20:23.187Z,17.47
2023-05-24T14:25:23.024Z,17.10
2023-05-24T14:30:22.965Z,17.30
2023-05-24T14:35:22.920Z,17.35
2023-05-24T14:40:22.980Z,17.06
2023-05-24T14:45:22.822Z,16.98
2023-05-24T14:50:22.757Z,17.32
2023-05-24T14:55:22.710Z,17.01
2023-05-24T15:00:24.522Z,16.63
2023-05-24T15:05:22.576Z,16.45
2023-05-24T15:10:22.518Z,17.68
2023-05-24T15:15:22.507Z,17.61
2023-05-24T15:20:22.435Z,17.07
2023-05-24T15:25:22.470Z,17.52
2023-05-24T15:30:22.312Z,17.43
2023-05-24T15:35:22.254Z,18.56
2023-05-24T15:40:24.079Z,17.66
2023-05-24T15:45:22.174Z,16.89
2023-05-24T15:50:31.776Z,17.40
2023-05-24T15:55:23.027Z,17.78
2023-05-24T16:00:22.018Z,17.36
2023-05-24T16:05:21.943Z,17.51
2023-05-24T16:10:21.869Z,17.03
2023-05-24T16:15:21.820Z,16.32
2023-05-24T16:20:21.834Z,16.04
2023-05-24T16:25:28.738Z,15.94
2023-05-24T16:30:21.648Z,16.04
2023-05-24T16:35:21.608Z,16.18
2023-05-24T16:40:21.572Z,16.47
2023-05-24T16:45:21.489Z,16.44
2023-05-24T16:50:21.429Z,16.49
2023-05-24T16:55:21.386Z,16.44
2023-05-24T17:00:21.339Z,16.35
2023-05-24T17:05:21.277Z,16.30
2023-05-24T17:10:21.305Z,16.29
2023-05-24T17:15:21.174Z,16.31
2023-05-24T17:20:21.234Z,16.44
2023-05-24T17:25:21.062Z,16.12
2023-05-24T17:30:20.985Z,16.06
2023-05-24T17:35:20.944Z,16.17
2023-05-24T17:40:20.921Z,16.40
2023-05-24T17:45:20.815Z,16.17
2023-05-24T17:50:20.767Z,15.77
2023-05-24T17:55:20.746Z,15.90
2023-05-24T18:00:20.759Z,15.75
2023-05-24T18:05:20.636Z,15.87
2023-05-24T18:10:20.561Z,15.74
2023-05-24T18:15:20.495Z,15.50
2023-05-24T18:20:20.534Z,15.40
2023-05-24T18:25:20.386Z,15.22
2023-05-24T18:30:20.329Z,15.14
2023-05-24T18:35:20.280Z,14.99
2023-05-24T18:40:20.251Z,14.95
2023-05-24T18:45:20.189Z,14.89
2023-05-24T18:50:22.113Z,14.92
2023-05-24T18:55:20.061Z,14.82
2023-05-24T19:00:20.032Z,14.81
2023-05-24T19:05:19.967Z,14.72
2023-05-24T19:10:19.893Z,14.60
2023-05-24T19:15:19.891Z,14.49
2023-05-24T19:20:19.913Z,14.41
2023-05-24T19:25:19.718Z,14.09
2023-05-24T19:30:19.683Z,14.05
2023-05-24T19:35:19.625Z,13.89
2023-05-24T19:40:19.591Z,13.72
2023-05-24T19:45:19.532Z,13.52
2023-05-24T19:50:19.452Z,13.33
2023-05-24T19:55:19.397Z,13.09
2023-05-24T20:00:19.356Z,12.95
2023-05-24T20:05:19.283Z,12.82
2023-05-24T20:10:19.228Z,12.67
2023-05-24T20:15:19.185Z,12.50
2023-05-24T20:20:19.200Z,12.40
2023-05-24T20:25:19.070Z,12.21
2023-05-24T20:30:19.015Z,12.10
2023-05-24T20:35:18.964Z,12.05
2023-05-24T20:40:18.947Z,12.01
2023-05-24T20:45:18.848Z,12.04
2023-05-24T20:50:18.797Z,12.05
2023-05-24T20:55:18.727Z,11.99
2023-05-24T21:00:18.698Z,12.09
2023-05-24T21:05:18.637Z,11.94
2023-05-24T21:10:18.614Z,11.83
2023-05-24T21:15:18.526Z,11.71
2023-05-24T21:20:18.539Z,11.63
2023-05-24T21:25:18.403Z,11.67
2023-05-24T21:30:18.377Z,11.71
2023-05-24T21:35:18.296Z,11.70
2023-05-24T21:40:18.267Z,11.60
2023-05-24T21:45:18.203Z,11.53
2023-05-24T21:50:18.137Z,11.47
2023-05-24T21:55:18.082Z,11.52
2023-05-24T22:00:18.059Z,11.60
2023-05-24T22:05:17.975Z,11.57
2023-05-24T22:10:17.927Z,11.45
2023-05-24T22:15:17.866Z,11.43
2023-05-24T22:20:17.904Z,11.41
2023-05-24T22:25:24.791Z,11.25
2023-05-24T22:30:17.706Z,11.20
2023-05-24T22:35:17.666Z,11.23
2023-05-24T22:40:17.626Z,11.17
2023-05-24T22:45:17.550Z,11.05
2023-05-24T22:50:17.494Z,10.87
2023-05-24T22:55:17.442Z,10.88
2023-05-24T23:00:17.420Z,10.85
2023-05-24T23:05:17.556Z,11.00
2023-05-24T23:10:17.296Z,10.95
2023-05-24T23:15:17.250Z,10.88
2023-05-24T23:20:17.243Z,10.74
2023-05-24T23:25:17.155Z,10.60
